sensor_id;sensor_type;location;lat;lon;timestamp;temperature;humidity
20432;DHT22;10375;49.136;10.366;2023-04-03T00:00:58;3.10;99.90
20432;DHT22;10375;49.136;10.366;2023-04-03T00:03:26;3.10;99.90
20432;DHT22;10375;49.136;10.366;2023-04-03T00:05:53;3.00;99.90
20432;DHT22;10375;49.136;10.366;2023-04-03T00:08:20;3.00;99.90
20432;DHT22;10375;49.136;10.366;2023-04-03T00:10:47;3.10;99.90
20432;DHT22;10375;49.136;10.366;2023-04-03T00:13:14;3.00;99.90
20432;DHT22;10375;49.136;10.366;2023-04-03T00:15:42;3.00;99.90
20432;DHT22;10375;49.136;10.366;2023-04-03T00:18:09;3.00;99.90
20432;DHT22;10375;49.136;10.366;2023-04-03T00:20:36;3.00;99.90
20432;DHT22;10375;49.136;10.366;2023-04-03T00:23:04;3.00;99.90
20432;DHT22;10375;49.136;10.366;2023-04-03T00:25:31;3.10;99.90
20432;DHT22;10375;49.136;10.366;2023-04-03T00:27:59;3.10;99.90
20432;DHT22;10375;49.136;10.366;2023-04-03T00:30:26;3.00;99.90
20432;DHT22;10375;49.136;10.366;2023-04-03T00:32:53;3.00;99.90
20432;DHT22;10375;49.136;10.366;2023-04-03T00:35:22;3.00;99.90
20432;DHT22;10375;49.136;10.366;2023-04-03T00:37:52;3.00;99.90
20432;DHT22;10375;49.136;10.366;2023-04-03T00:40:22;3.00;99.90
20432;DHT22;10375;49.136;10.366;2023-04-03T00:42:54;3.00;99.90
20432;DHT22;10375;49.136;10.366;2023-04-03T00:45:31;3.00;99.90
20432;DHT22;10375;49.136;10.366;2023-04-03T00:48:00;2.90;99.90
20432;DHT22;10375;49.136;10.366;2023-04-03T00:50:28;3.00;99.90
20432;DHT22;10375;49.136;10.366;2023-04-03T00:52:56;3.00;99.90
20432;DHT22;10375;49.136;10.366;2023-04-03T00:55:24;2.90;99.90
20432;DHT22;10375;49.136;10.366;2023-04-03T00:57:52;3.00;99.90
20432;DHT22;10375;49.136;10.366;2023-04-03T01:00:21;2.90;99.90
20432;DHT22;10375;49.136;10.366;2023-04-03T01:02:50;3.00;99.90
20432;DHT22;10375;49.136;10.366;2023-04-03T01:05:19;3.00;99.90
20432;DHT22;10375;49.136;10.366;2023-04-03T01:07:47;2.90;99.90
20432;DHT22;10375;49.136;10.366;2023-04-03T01:10:17;2.90;99.90
20432;DHT22;10375;49.136;10.366;2023-04-03T01:12:48;2.90;99.90
20432;DHT22;10375;49.136;10.366;2023-04-03T01:15:22;2.90;99.90
20432;DHT22;10375;49.136;10.366;2023-04-03T01:17:59;2.80;99.90
20432;DHT22;10375;49.136;10.366;2023-04-03T01:25:41;2.70;99.90
20432;DHT22;10375;49.136;10.366;2023-04-03T01:28:14;2.70;99.90
20432;DHT22;10375;49.136;10.366;2023-04-03T01:33:31;2.70;99.90
20432;DHT22;10375;49.136;10.366;2023-04-03T01:35:58;2.70;99.90
20432;DHT22;10375;49.136;10.366;2023-04-03T01:38:25;2.80;99.90
20432;DHT22;10375;49.136;10.366;2023-04-03T01:40:52;2.70;99.90
20432;DHT22;10375;49.136;10.366;2023-04-03T01:43:19;2.60;99.90
20432;DHT22;10375;49.136;10.366;2023-04-03T01:45:46;2.60;99.90
20432;DHT22;10375;49.136;10.366;2023-04-03T01:48:13;2.50;99.90
20432;DHT22;10375;49.136;10.366;2023-04-03T01:50:41;2.50;99.90
20432;DHT22;10375;49.136;10.366;2023-04-03T01:53:08;2.40;99.90
20432;DHT22;10375;49.136;10.366;2023-04-03T01:55:35;2.50;99.90
20432;DHT22;10375;49.136;10.366;2023-04-03T01:58:02;2.50;99.90
20432;DHT22;10375;49.136;10.366;2023-04-03T02:00:29;2.40;99.90
20432;DHT22;10375;49.136;10.366;2023-04-03T02:02:56;2.40;99.90
20432;DHT22;10375;49.136;10.366;2023-04-03T02:05:23;2.50;99.90
20432;DHT22;10375;49.136;10.366;2023-04-03T02:07:50;2.40;99.90
20432;DHT22;10375;49.136;10.366;2023-04-03T02:10:17;2.30;99.90
20432;DHT22;10375;49.136;10.366;2023-04-03T02:12:44;2.30;99.90
20432;DHT22;10375;49.136;10.366;2023-04-03T02:15:12;2.30;99.90
20432;DHT22;10375;49.136;10.366;2023-04-03T02:17:39;2.40;99.90
20432;DHT22;10375;49.136;10.366;2023-04-03T02:20:06;2.40;99.90
20432;DHT22;10375;49.136;10.366;2023-04-03T02:22:34;2.40;99.90
20432;DHT22;10375;49.136;10.366;2023-04-03T02:25:01;2.40;99.90
20432;DHT22;10375;49.136;10.366;2023-04-03T02:27:28;2.40;99.90
20432;DHT22;10375;49.136;10.366;2023-04-03T02:29:55;2.40;99.90
20432;DHT22;10375;49.136;10.366;2023-04-03T02:32:22;2.40;99.90
20432;DHT22;10375;49.136;10.366;2023-04-03T02:34:49;2.40;99.90
20432;DHT22;10375;49.136;10.366;2023-04-03T02:37:16;2.40;99.90
20432;DHT22;10375;49.136;10.366;2023-04-03T02:39:43;2.30;99.90
20432;DHT22;10375;49.136;10.366;2023-04-03T02:42:10;2.30;99.90
20432;DHT22;10375;49.136;10.366;2023-04-03T02:44:37;2.30;99.90
20432;DHT22;10375;49.136;10.366;2023-04-03T02:47:05;2.30;99.90
20432;DHT22;10375;49.136;10.366;2023-04-03T02:49:32;2.30;99.90
20432;DHT22;10375;49.136;10.366;2023-04-03T02:51:59;2.30;99.90
20432;DHT22;10375;49.136;10.366;2023-04-03T02:54:26;2.20;99.90
20432;DHT22;10375;49.136;10.366;2023-04-03T02:56:57;2.30;99.90
20432;DHT22;10375;49.136;10.366;2023-04-03T02:59:24;2.20;99.90
20432;DHT22;10375;49.136;10.366;2023-04-03T03:01:52;2.20;99.90
20432;DHT22;10375;49.136;10.366;2023-04-03T03:04:19;2.20;99.90
20432;DHT22;10375;49.136;10.366;2023-04-03T03:06:46;2.20;99.90
20432;DHT22;10375;49.136;10.366;2023-04-03T03:09:14;2.20;99.90
20432;DHT22;10375;49.136;10.366;2023-04-03T03:11:41;2.20;99.90
20432;DHT22;10375;49.136;10.366;2023-04-03T03:14:08;2.10;99.90
20432;DHT22;10375;49.136;10.366;2023-04-03T03:16:35;2.10;99.90
20432;DHT22;10375;49.136;10.366;2023-04-03T03:19:02;2.10;99.90
20432;DHT22;10375;49.136;10.366;2023-04-03T03:21:29;2.00;99.90
20432;DHT22;10375;49.136;10.366;2023-04-03T03:23:56;2.00;99.90
20432;DHT22;10375;49.136;10.366;2023-04-03T03:26:23;2.00;99.90
20432;DHT22;10375;49.136;10.366;2023-04-03T03:28:51;2.00;99.90
20432;DHT22;10375;49.136;10.366;2023-04-03T03:31:18;1.90;99.90
20432;DHT22;10375;49.136;10.366;2023-04-03T03:33:46;1.90;99.90
20432;DHT22;10375;49.136;10.366;2023-04-03T03:36:13;1.80;99.90
20432;DHT22;10375;49.136;10.366;2023-04-03T03:38:40;1.80;99.90
20432;DHT22;10375;49.136;10.366;2023-04-03T03:41:07;1.70;99.90
20432;DHT22;10375;49.136;10.366;2023-04-03T03:43:34;1.70;99.90
20432;DHT22;10375;49.136;10.366;2023-04-03T03:46:01;1.70;99.90
20432;DHT22;10375;49.136;10.366;2023-04-03T03:48:28;1.70;99.90
20432;DHT22;10375;49.136;10.366;2023-04-03T03:50:55;1.70;99.90
20432;DHT22;10375;49.136;10.366;2023-04-03T03:53:22;1.70;99.90
20432;DHT22;10375;49.136;10.366;2023-04-03T03:55:49;1.70;99.90
20432;DHT22;10375;49.136;10.366;2023-04-03T03:58:16;1.70;99.90
20432;DHT22;10375;49.136;10.366;2023-04-03T04:00:43;1.70;99.90
20432;DHT22;10375;49.136;10.366;2023-04-03T04:03:10;1.70;99.90
20432;DHT22;10375;49.136;10.366;2023-04-03T04:05:38;1.70;99.90
20432;DHT22;10375;49.136;10.366;2023-04-03T04:08:06;1.60;99.90
20432;DHT22;10375;49.136;10.366;2023-04-03T04:10:33;1.60;99.90
20432;DHT22;10375;49.136;10.366;2023-04-03T04:13:01;1.60;99.90
20432;DHT22;10375;49.136;10.366;2023-04-03T04:15:28;1.50;99.90
20432;DHT22;10375;49.136;10.366;2023-04-03T04:17:55;1.50;99.90
20432;DHT22;10375;49.136;10.366;2023-04-03T04:20:23;1.50;99.90
20432;DHT22;10375;49.136;10.366;2023-04-03T04:22:50;1.50;99.90
20432;DHT22;10375;49.136;10.366;2023-04-03T04:25:17;1.50;99.90
20432;DHT22;10375;49.136;10.366;2023-04-03T04:27:44;1.50;99.90
20432;DHT22;10375;49.136;10.366;2023-04-03T04:30:12;1.50;99.90
20432;DHT22;10375;49.136;10.366;2023-04-03T04:32:39;1.50;99.90
20432;DHT22;10375;49.136;10.366;2023-04-03T04:35:06;1.40;99.90
20432;DHT22;10375;49.136;10.366;2023-04-03T04:37:34;1.40;99.90
20432;DHT22;10375;49.136;10.366;2023-04-03T04:40:00;1.40;99.90
20432;DHT22;10375;49.136;10.366;2023-04-03T04:42:28;1.30;99.90
20432;DHT22;10375;49.136;10.366;2023-04-03T04:44:56;1.40;99.90
20432;DHT22;10375;49.136;10.366;2023-04-03T04:47:23;1.30;99.90
20432;DHT22;10375;49.136;10.366;2023-04-03T04:49:50;1.30;99.90
20432;DHT22;10375;49.136;10.366;2023-04-03T04:52:17;1.40;99.90
20432;DHT22;10375;49.136;10.366;2023-04-03T04:54:44;1.30;99.90
20432;DHT22;10375;49.136;10.366;2023-04-03T04:57:11;1.30;99.90
20432;DHT22;10375;49.136;10.366;2023-04-03T04:59:38;1.30;99.90
20432;DHT22;10375;49.136;10.366;2023-04-03T05:02:06;1.20;99.90
20432;DHT22;10375;49.136;10.366;2023-04-03T05:04:33;1.30;99.90
20432;DHT22;10375;49.136;10.366;2023-04-03T05:07:00;1.30;99.90
20432;DHT22;10375;49.136;10.366;2023-04-03T05:09:27;1.30;99.90
20432;DHT22;10375;49.136;10.366;2023-04-03T05:11:54;1.30;99.90
20432;DHT22;10375;49.136;10.366;2023-04-03T05:14:23;1.30;99.90
20432;DHT22;10375;49.136;10.366;2023-04-03T05:16:50;1.40;99.90
20432;DHT22;10375;49.136;10.366;2023-04-03T05:19:21;1.40;99.90
20432;DHT22;10375;49.136;10.366;2023-04-03T05:21:50;1.40;99.90
20432;DHT22;10375;49.136;10.366;2023-04-03T05:24:17;1.50;99.90
20432;DHT22;10375;49.136;10.366;2023-04-03T05:26:46;1.50;99.90
20432;DHT22;10375;49.136;10.366;2023-04-03T05:29:13;1.50;99.90
20432;DHT22;10375;49.136;10.366;2023-04-03T05:31:41;1.50;99.90
20432;DHT22;10375;49.136;10.366;2023-04-03T05:34:08;1.50;99.90
20432;DHT22;10375;49.136;10.366;2023-04-03T05:36:35;1.50;99.90
20432;DHT22;10375;49.136;10.366;2023-04-03T05:39:03;1.60;99.90
20432;DHT22;10375;49.136;10.366;2023-04-03T05:41:30;1.70;99.90
20432;DHT22;10375;49.136;10.366;2023-04-03T05:43:57;1.70;99.90
20432;DHT22;10375;49.136;10.366;2023-04-03T05:46:25;1.80;99.90
20432;DHT22;10375;49.136;10.366;2023-04-03T05:48:52;1.90;99.90
20432;DHT22;10375;49.136;10.366;2023-04-03T05:51:24;2.00;99.90
20432;DHT22;10375;49.136;10.366;2023-04-03T05:54:19;2.10;99.90
20432;DHT22;10375;49.136;10.366;2023-04-03T05:56:47;2.20;99.90
20432;DHT22;10375;49.136;10.366;2023-04-03T05:59:18;2.20;99.90
20432;DHT22;10375;49.136;10.366;2023-04-03T06:01:48;2.30;99.90
20432;DHT22;10375;49.136;10.366;2023-04-03T06:04:16;2.40;99.90
20432;DHT22;10375;49.136;10.366;2023-04-03T06:06:51;2.50;99.90
20432;DHT22;10375;49.136;10.366;2023-04-03T06:09:21;2.60;99.90
20432;DHT22;10375;49.136;10.366;2023-04-03T06:11:48;2.80;99.90
20432;DHT22;10375;49.136;10.366;2023-04-03T06:14:15;2.80;99.90
20432;DHT22;10375;49.136;10.366;2023-04-03T06:16:43;2.90;99.90
20432;DHT22;10375;49.136;10.366;2023-04-03T06:19:11;3.10;99.90
20432;DHT22;10375;49.136;10.366;2023-04-03T06:21:38;3.30;99.90
20432;DHT22;10375;49.136;10.366;2023-04-03T06:24:06;3.40;99.90
20432;DHT22;10375;49.136;10.366;2023-04-03T06:26:36;3.40;99.90
20432;DHT22;10375;49.136;10.366;2023-04-03T06:29:04;3.50;99.90
20432;DHT22;10375;49.136;10.366;2023-04-03T06:31:31;3.50;99.90
20432;DHT22;10375;49.136;10.366;2023-04-03T06:33:59;3.40;99.90
20432;DHT22;10375;49.136;10.366;2023-04-03T06:36:26;3.40;99.90
20432;DHT22;10375;49.136;10.366;2023-04-03T06:38:54;3.30;99.90
20432;DHT22;10375;49.136;10.366;2023-04-03T06:41:21;3.40;99.90
20432;DHT22;10375;49.136;10.366;2023-04-03T06:43:51;3.40;99.90
20432;DHT22;10375;49.136;10.366;2023-04-03T06:46:21;3.30;99.90
20432;DHT22;10375;49.136;10.366;2023-04-03T06:48:49;3.30;99.90
20432;DHT22;10375;49.136;10.366;2023-04-03T06:51:27;3.40;99.90
20432;DHT22;10375;49.136;10.366;2023-04-03T06:53:57;3.40;99.90
20432;DHT22;10375;49.136;10.366;2023-04-03T06:56:26;3.40;99.90
20432;DHT22;10375;49.136;10.366;2023-04-03T06:58:54;3.50;99.90
20432;DHT22;10375;49.136;10.366;2023-04-03T07:01:23;3.60;99.90
20432;DHT22;10375;49.136;10.366;2023-04-03T07:03:50;3.60;99.90
20432;DHT22;10375;49.136;10.366;2023-04-03T07:06:18;3.70;99.90
20432;DHT22;10375;49.136;10.366;2023-04-03T07:08:46;3.70;99.90
20432;DHT22;10375;49.136;10.366;2023-04-03T07:11:15;3.70;99.90
20432;DHT22;10375;49.136;10.366;2023-04-03T07:13:42;3.60;99.90
20432;DHT22;10375;49.136;10.366;2023-04-03T07:16:10;3.60;99.90
20432;DHT22;10375;49.136;10.366;2023-04-03T07:18:37;3.50;99.90
20432;DHT22;10375;49.136;10.366;2023-04-03T07:21:05;3.50;99.90
20432;DHT22;10375;49.136;10.366;2023-04-03T07:23:33;3.50;99.90
20432;DHT22;10375;49.136;10.366;2023-04-03T07:26:00;3.60;99.90
20432;DHT22;10375;49.136;10.366;2023-04-03T07:28:28;3.60;99.90
20432;DHT22;10375;49.136;10.366;2023-04-03T07:31:05;3.70;99.90
20432;DHT22;10375;49.136;10.366;2023-04-03T07:33:36;3.70;99.90
20432;DHT22;10375;49.136;10.366;2023-04-03T07:36:05;3.70;99.90
20432;DHT22;10375;49.136;10.366;2023-04-03T07:38:36;4.00;99.90
20432;DHT22;10375;49.136;10.366;2023-04-03T07:41:04;4.10;99.90
20432;DHT22;10375;49.136;10.366;2023-04-03T07:43:31;4.10;99.90
20432;DHT22;10375;49.136;10.366;2023-04-03T07:45:59;4.00;99.90
20432;DHT22;10375;49.136;10.366;2023-04-03T07:48:27;4.20;99.90
20432;DHT22;10375;49.136;10.366;2023-04-03T07:50:59;4.50;99.90
20432;DHT22;10375;49.136;10.366;2023-04-03T07:53:28;4.60;99.90
20432;DHT22;10375;49.136;10.366;2023-04-03T07:55:56;4.60;99.90
20432;DHT22;10375;49.136;10.366;2023-04-03T07:58:24;4.70;99.90
20432;DHT22;10375;49.136;10.366;2023-04-03T08:00:52;4.70;99.90
20432;DHT22;10375;49.136;10.366;2023-04-03T08:03:19;4.60;99.90
20432;DHT22;10375;49.136;10.366;2023-04-03T08:05:48;4.60;99.90
20432;DHT22;10375;49.136;10.366;2023-04-03T08:08:18;4.60;99.90
20432;DHT22;10375;49.136;10.366;2023-04-03T08:10:53;4.60;99.90
20432;DHT22;10375;49.136;10.366;2023-04-03T08:13:21;4.60;99.90
20432;DHT22;10375;49.136;10.366;2023-04-03T08:15:49;4.70;99.90
20432;DHT22;10375;49.136;10.366;2023-04-03T08:18:17;4.60;99.90
20432;DHT22;10375;49.136;10.366;2023-04-03T08:20:45;4.60;99.90
20432;DHT22;10375;49.136;10.366;2023-04-03T08:23:12;4.60;99.90
20432;DHT22;10375;49.136;10.366;2023-04-03T08:25:40;4.60;99.90
20432;DHT22;10375;49.136;10.366;2023-04-03T08:28:12;4.70;99.90
20432;DHT22;10375;49.136;10.366;2023-04-03T08:30:40;4.90;99.90
20432;DHT22;10375;49.136;10.366;2023-04-03T08:33:08;5.00;99.90
20432;DHT22;10375;49.136;10.366;2023-04-03T08:35:41;5.20;99.90
20432;DHT22;10375;49.136;10.366;2023-04-03T08:38:09;5.00;99.90
20432;DHT22;10375;49.136;10.366;2023-04-03T08:40:37;5.00;99.90
20432;DHT22;10375;49.136;10.366;2023-04-03T08:46:05;5.10;99.90
20432;DHT22;10375;49.136;10.366;2023-04-03T08:48:45;5.10;99.90
20432;DHT22;10375;49.136;10.366;2023-04-03T08:51:15;5.00;99.90
20432;DHT22;10375;49.136;10.366;2023-04-03T08:54:04;4.90;99.90
20432;DHT22;10375;49.136;10.366;2023-04-03T08:56:33;5.00;99.90
20432;DHT22;10375;49.136;10.366;2023-04-03T08:59:06;5.00;99.90
20432;DHT22;10375;49.136;10.366;2023-04-03T09:01:39;5.20;99.90
20432;DHT22;10375;49.136;10.366;2023-04-03T09:04:17;5.20;99.90
20432;DHT22;10375;49.136;10.366;2023-04-03T09:06:52;5.30;99.90
20432;DHT22;10375;49.136;10.366;2023-04-03T09:09:31;5.40;99.90
20432;DHT22;10375;49.136;10.366;2023-04-03T09:12:17;5.50;99.90
20432;DHT22;10375;49.136;10.366;2023-04-03T09:23:32;5.50;99.90
20432;DHT22;10375;49.136;10.366;2023-04-03T09:26:07;5.70;99.90
20432;DHT22;10375;49.136;10.366;2023-04-03T09:28:39;5.80;99.90
20432;DHT22;10375;49.136;10.366;2023-04-03T09:31:21;5.90;99.90
20432;DHT22;10375;49.136;10.366;2023-04-03T09:33:58;6.00;99.90
20432;DHT22;10375;49.136;10.366;2023-04-03T09:36:40;6.10;99.90
20432;DHT22;10375;49.136;10.366;2023-04-03T09:39:18;6.10;99.90
20432;DHT22;10375;49.136;10.366;2023-04-03T09:42:02;6.20;99.90
20432;DHT22;10375;49.136;10.366;2023-04-03T09:44:33;6.30;99.90
20432;DHT22;10375;49.136;10.366;2023-04-03T09:47:26;6.10;99.90
20432;DHT22;10375;49.136;10.366;2023-04-03T09:52:46;5.30;99.90
20432;DHT22;10375;49.136;10.366;2023-04-03T09:55:19;5.30;99.90
20432;DHT22;10375;49.136;10.366;2023-04-03T09:57:50;5.20;99.90
20432;DHT22;10375;49.136;10.366;2023-04-03T10:00:28;5.20;99.90
20432;DHT22;10375;49.136;10.366;2023-04-03T10:02:58;5.30;99.90
20432;DHT22;10375;49.136;10.366;2023-04-03T10:05:38;5.40;99.90
20432;DHT22;10375;49.136;10.366;2023-04-03T10:08:35;5.70;99.90
20432;DHT22;10375;49.136;10.366;2023-04-03T10:11:27;5.70;99.90
20432;DHT22;10375;49.136;10.366;2023-04-03T10:13:58;5.80;99.90
20432;DHT22;10375;49.136;10.366;2023-04-03T10:16:35;5.80;99.90
20432;DHT22;10375;49.136;10.366;2023-04-03T10:32:39;5.80;99.90
20432;DHT22;10375;49.136;10.366;2023-04-03T10:35:34;5.80;99.90
20432;DHT22;10375;49.136;10.366;2023-04-03T10:40:39;5.90;99.90
20432;DHT22;10375;49.136;10.366;2023-04-03T10:43:36;5.80;99.90
20432;DHT22;10375;49.136;10.366;2023-04-03T10:46:13;5.80;99.90
20432;DHT22;10375;49.136;10.366;2023-04-03T10:49:22;6.10;99.90
20432;DHT22;10375;49.136;10.366;2023-04-03T10:52:17;6.40;99.90
20432;DHT22;10375;49.136;10.366;2023-04-03T10:57:43;6.80;99.90
20432;DHT22;10375;49.136;10.366;2023-04-03T11:00:21;6.60;99.90
20432;DHT22;10375;49.136;10.366;2023-04-03T11:02:58;6.60;99.90
20432;DHT22;10375;49.136;10.366;2023-04-03T11:05:40;6.60;99.90
20432;DHT22;10375;49.136;10.366;2023-04-03T11:11:08;6.70;99.90
20432;DHT22;10375;49.136;10.366;2023-04-03T11:13:56;6.70;99.90
20432;DHT22;10375;49.136;10.366;2023-04-03T11:16:28;6.80;99.90
20432;DHT22;10375;49.136;10.366;2023-04-03T11:19:03;6.90;99.90
20432;DHT22;10375;49.136;10.366;2023-04-03T11:21:37;7.10;99.90
20432;DHT22;10375;49.136;10.366;2023-04-03T11:24:15;7.30;99.90
20432;DHT22;10375;49.136;10.366;2023-04-03T11:26:43;7.40;99.90
20432;DHT22;10375;49.136;10.366;2023-04-03T11:29:19;7.40;98.50
20432;DHT22;10375;49.136;10.366;2023-04-03T11:34:41;7.40;98.50
20432;DHT22;10375;49.136;10.366;2023-04-03T11:37:31;7.50;99.00
20432;DHT22;10375;49.136;10.366;2023-04-03T11:42:46;7.90;99.80
20432;DHT22;10375;49.136;10.366;2023-04-03T11:47:52;7.90;97.80
20432;DHT22;10375;49.136;10.366;2023-04-03T11:58:22;7.70;97.80
20432;DHT22;10375;49.136;10.366;2023-04-03T12:00:55;7.70;97.20
20432;DHT22;10375;49.136;10.366;2023-04-03T12:11:25;7.80;96.80
20432;DHT22;10375;49.136;10.366;2023-04-03T12:19:34;7.30;97.60
20432;DHT22;10375;49.136;10.366;2023-04-03T12:22:15;6.90;97.00
20432;DHT22;10375;49.136;10.366;2023-04-03T12:24:52;6.80;99.90
20432;DHT22;10375;49.136;10.366;2023-04-03T12:27:40;6.90;98.00
20432;DHT22;10375;49.136;10.366;2023-04-03T12:30:41;6.90;97.60
20432;DHT22;10375;49.136;10.366;2023-04-03T12:36:11;7.20;98.00
20432;DHT22;10375;49.136;10.366;2023-04-03T12:39:01;7.00;97.90
20432;DHT22;10375;49.136;10.366;2023-04-03T12:41:38;6.70;96.70
20432;DHT22;10375;49.136;10.366;2023-04-03T12:46:53;7.00;98.00
20432;DHT22;10375;49.136;10.366;2023-04-03T12:52:05;7.60;98.00
20432;DHT22;10375;49.136;10.366;2023-04-03T12:54:45;7.70;96.70
20432;DHT22;10375;49.136;10.366;2023-04-03T12:59:45;7.30;97.50
20432;DHT22;10375;49.136;10.366;2023-04-03T13:04:49;6.90;95.50
20432;DHT22;10375;49.136;10.366;2023-04-03T13:07:26;6.70;96.70
20432;DHT22;10375;49.136;10.366;2023-04-03T13:10:00;7.30;96.00
20432;DHT22;10375;49.136;10.366;2023-04-03T13:12:27;8.10;94.80
20432;DHT22;10375;49.136;10.366;2023-04-03T13:15:01;8.90;94.80
20432;DHT22;10375;49.136;10.366;2023-04-03T13:17:31;9.30;93.70
20432;DHT22;10375;49.136;10.366;2023-04-03T13:20:52;9.20;95.70
20432;DHT22;10375;49.136;10.366;2023-04-03T13:23:04;8.40;93.90
20432;DHT22;10375;49.136;10.366;2023-04-03T13:25:34;7.40;94.10
20432;DHT22;10375;49.136;10.366;2023-04-03T13:28:05;6.90;95.00
20432;DHT22;10375;49.136;10.366;2023-04-03T13:30:41;6.70;95.50
20432;DHT22;10375;49.136;10.366;2023-04-03T13:33:26;7.30;95.90
20432;DHT22;10375;49.136;10.366;2023-04-03T13:35:57;8.20;94.70
20432;DHT22;10375;49.136;10.366;2023-04-03T13:38:30;9.20;95.00
20432;DHT22;10375;49.136;10.366;2023-04-03T13:41:04;9.50;92.30
20432;DHT22;10375;49.136;10.366;2023-04-03T13:43:35;9.20;93.00
20432;DHT22;10375;49.136;10.366;2023-04-03T13:48:40;8.00;93.90
20432;DHT22;10375;49.136;10.366;2023-04-03T13:53:51;7.30;95.40
20432;DHT22;10375;49.136;10.366;2023-04-03T14:01:24;7.50;94.30
20432;DHT22;10375;49.136;10.366;2023-04-03T14:03:57;7.40;94.00
20432;DHT22;10375;49.136;10.366;2023-04-03T14:06:25;7.20;94.80
20432;DHT22;10375;49.136;10.366;2023-04-03T14:08:53;7.20;94.50
20432;DHT22;10375;49.136;10.366;2023-04-03T14:11:40;7.30;95.40
20432;DHT22;10375;49.136;10.366;2023-04-03T14:14:17;7.80;93.90
20432;DHT22;10375;49.136;10.366;2023-04-03T14:16:51;7.90;94.40
20432;DHT22;10375;49.136;10.366;2023-04-03T14:19:27;8.10;94.00
20432;DHT22;10375;49.136;10.366;2023-04-03T14:21:56;8.00;92.90
20432;DHT22;10375;49.136;10.366;2023-04-03T14:24:24;8.00;94.50
20432;DHT22;10375;49.136;10.366;2023-04-03T14:26:53;7.90;92.60
20432;DHT22;10375;49.136;10.366;2023-04-03T14:29:21;7.80;93.80
20432;DHT22;10375;49.136;10.366;2023-04-03T14:31:50;8.00;93.60
20432;DHT22;10375;49.136;10.366;2023-04-03T14:34:26;8.60;94.00
20432;DHT22;10375;49.136;10.366;2023-04-03T14:36:54;9.00;90.40
20432;DHT22;10375;49.136;10.366;2023-04-03T14:39:23;9.40;91.80
20432;DHT22;10375;49.136;10.366;2023-04-03T14:41:52;9.30;91.20
20432;DHT22;10375;49.136;10.366;2023-04-03T14:44:19;9.80;91.90
20432;DHT22;10375;49.136;10.366;2023-04-03T14:46:47;9.60;90.50
20432;DHT22;10375;49.136;10.366;2023-04-03T14:49:26;9.00;91.80
20432;DHT22;10375;49.136;10.366;2023-04-03T14:51:56;8.20;93.00
20432;DHT22;10375;49.136;10.366;2023-04-03T14:54:24;7.70;93.60
20432;DHT22;10375;49.136;10.366;2023-04-03T14:56:58;7.10;93.20
20432;DHT22;10375;49.136;10.366;2023-04-03T14:59:26;6.70;93.90
20432;DHT22;10375;49.136;10.366;2023-04-03T15:01:53;6.60;95.20
20432;DHT22;10375;49.136;10.366;2023-04-03T15:04:22;6.40;96.00
20432;DHT22;10375;49.136;10.366;2023-04-03T15:06:51;6.20;95.20
20432;DHT22;10375;49.136;10.366;2023-04-03T15:09:24;6.20;95.20
20432;DHT22;10375;49.136;10.366;2023-04-03T15:11:53;6.20;94.30
20432;DHT22;10375;49.136;10.366;2023-04-03T15:14:21;6.60;95.50
20432;DHT22;10375;49.136;10.366;2023-04-03T15:17:05;7.10;93.50
20432;DHT22;10375;49.136;10.366;2023-04-03T15:19:36;7.20;93.20
20432;DHT22;10375;49.136;10.366;2023-04-03T15:22:13;7.20;93.50
20432;DHT22;10375;49.136;10.366;2023-04-03T15:24:40;7.40;92.80
20432;DHT22;10375;49.136;10.366;2023-04-03T15:27:09;7.90;94.40
20432;DHT22;10375;49.136;10.366;2023-04-03T15:29:38;8.10;93.20
20432;DHT22;10375;49.136;10.366;2023-04-03T15:32:06;8.30;92.10
20432;DHT22;10375;49.136;10.366;2023-04-03T15:34:33;8.10;92.20
20432;DHT22;10375;49.136;10.366;2023-04-03T15:37:01;7.80;93.50
20432;DHT22;10375;49.136;10.366;2023-04-03T15:39:28;7.40;93.60
20432;DHT22;10375;49.136;10.366;2023-04-03T15:41:55;7.20;94.50
20432;DHT22;10375;49.136;10.366;2023-04-03T15:44:26;6.90;95.10
20432;DHT22;10375;49.136;10.366;2023-04-03T15:46:53;6.70;94.20
20432;DHT22;10375;49.136;10.366;2023-04-03T15:49:21;6.60;95.00
20432;DHT22;10375;49.136;10.366;2023-04-03T15:51:48;6.60;94.40
20432;DHT22;10375;49.136;10.366;2023-04-03T15:54:16;6.90;95.40
20432;DHT22;10375;49.136;10.366;2023-04-03T15:56:44;7.10;93.90
20432;DHT22;10375;49.136;10.366;2023-04-03T15:59:11;7.20;94.20
20432;DHT22;10375;49.136;10.366;2023-04-03T16:01:38;7.30;95.50
20432;DHT22;10375;49.136;10.366;2023-04-03T16:04:08;7.10;93.90
20432;DHT22;10375;49.136;10.366;2023-04-03T16:06:37;6.80;93.20
20432;DHT22;10375;49.136;10.366;2023-04-03T16:09:05;6.50;94.20
20432;DHT22;10375;49.136;10.366;2023-04-03T16:11:33;6.30;95.70
20432;DHT22;10375;49.136;10.366;2023-04-03T16:14:02;6.20;96.20
20432;DHT22;10375;49.136;10.366;2023-04-03T16:16:29;6.20;96.50
20432;DHT22;10375;49.136;10.366;2023-04-03T16:18:57;6.10;96.60
20432;DHT22;10375;49.136;10.366;2023-04-03T16:21:25;6.10;96.40
20432;DHT22;10375;49.136;10.366;2023-04-03T16:23:53;6.20;97.60
20432;DHT22;10375;49.136;10.366;2023-04-03T16:26:22;6.10;96.20
20432;DHT22;10375;49.136;10.366;2023-04-03T16:28:50;6.00;95.90
20432;DHT22;10375;49.136;10.366;2023-04-03T16:31:20;6.00;95.60
20432;DHT22;10375;49.136;10.366;2023-04-03T16:33:49;6.20;96.50
20432;DHT22;10375;49.136;10.366;2023-04-03T16:36:16;6.30;96.00
20432;DHT22;10375;49.136;10.366;2023-04-03T16:38:44;6.30;95.70
20432;DHT22;10375;49.136;10.366;2023-04-03T16:41:12;6.30;95.60
20432;DHT22;10375;49.136;10.366;2023-04-03T16:43:40;6.30;96.70
20432;DHT22;10375;49.136;10.366;2023-04-03T16:46:08;6.30;95.90
20432;DHT22;10375;49.136;10.366;2023-04-03T16:48:36;6.20;95.90
20432;DHT22;10375;49.136;10.366;2023-04-03T16:51:03;6.10;95.10
20432;DHT22;10375;49.136;10.366;2023-04-03T16:53:31;6.10;96.80
20432;DHT22;10375;49.136;10.366;2023-04-03T16:55:59;6.00;95.30
20432;DHT22;10375;49.136;10.366;2023-04-03T16:58:26;6.00;95.20
20432;DHT22;10375;49.136;10.366;2023-04-03T17:00:53;6.00;96.30
20432;DHT22;10375;49.136;10.366;2023-04-03T17:03:20;6.00;95.50
20432;DHT22;10375;49.136;10.366;2023-04-03T17:05:48;5.90;95.10
20432;DHT22;10375;49.136;10.366;2023-04-03T17:08:18;5.80;95.30
20432;DHT22;10375;49.136;10.366;2023-04-03T17:10:45;5.70;95.20
20432;DHT22;10375;49.136;10.366;2023-04-03T17:13:15;5.60;95.30
20432;DHT22;10375;49.136;10.366;2023-04-03T17:15:42;5.50;96.10
20432;DHT22;10375;49.136;10.366;2023-04-03T17:18:09;5.50;96.30
20432;DHT22;10375;49.136;10.366;2023-04-03T17:20:36;5.40;96.00
20432;DHT22;10375;49.136;10.366;2023-04-03T17:23:05;5.30;95.50
20432;DHT22;10375;49.136;10.366;2023-04-03T17:25:34;5.30;96.00
20432;DHT22;10375;49.136;10.366;2023-04-03T17:28:01;5.20;96.80